createdAt,value
2018-09-15T00:01:44.907Z,83.51
2018-09-15T00:06:42.276Z,83.70
2018-09-15T00:11:39.701Z,83.34
2018-09-15T00:16:37.104Z,83.29
2018-09-15T00:21:34.503Z,83.79
2018-09-15T00:26:31.997Z,84.70
2018-09-15T00:31:29.385Z,84.34
2018-09-15T00:36:26.782Z,84.56
2018-09-15T00:41:24.212Z,84.09
2018-09-15T00:46:21.608Z,83.53
2018-09-15T00:51:18.995Z,82.33
2018-09-15T00:56:16.370Z,81.03
2018-09-15T01:01:14.086Z,81.12
2018-09-15T01:06:11.527Z,81.20
2018-09-15T01:11:09.071Z,82.23
2018-09-15T01:16:06.462Z,82.82
2018-09-15T01:21:03.859Z,83.93
2018-09-15T01:26:01.256Z,82.98
2018-09-15T01:30:58.656Z,81.62
2018-09-15T01:35:56.052Z,80.31
2018-09-15T01:40:53.441Z,79.20
2018-09-15T01:45:50.830Z,79.63
2018-09-15T01:50:48.251Z,79.05
2018-09-15T01:55:45.674Z,78.09
2018-09-15T02:00:43.091Z,76.76
2018-09-15T02:05:40.480Z,75.74
2018-09-15T02:10:37.865Z,76.31
2018-09-15T02:15:35.248Z,77.50
2018-09-15T02:20:32.611Z,78.79
2018-09-15T02:25:29.975Z,78.10
2018-09-15T02:30:27.350Z,78.40
2018-09-15T02:35:24.747Z,79.20
2018-09-15T02:40:22.203Z,80.78
2018-09-15T02:45:19.587Z,81.00
2018-09-15T02:50:16.982Z,80.71
2018-09-15T02:55:14.350Z,81.90
2018-09-15T03:00:11.762Z,82.75
2018-09-15T03:05:09.134Z,82.02
2018-09-15T03:10:07.660Z,82.22
2018-09-15T03:15:05.096Z,83.36
2018-09-15T03:20:02.552Z,83.15
2018-09-15T03:24:59.942Z,84.02
2018-09-15T03:29:57.339Z,84.46
2018-09-15T03:34:54.703Z,84.44
2018-09-15T03:39:56.597Z,85.15
2018-09-15T03:44:53.980Z,85.78
2018-09-15T03:49:51.355Z,86.39
2018-09-15T03:54:48.831Z,85.24
2018-09-15T03:59:46.204Z,86.43
2018-09-15T04:04:43.592Z,87.44
2018-09-15T04:09:49.212Z,87.59
2018-09-15T04:14:46.713Z,88.09
2018-09-15T04:19:44.095Z,88.99
2018-09-15T04:24:41.576Z,88.50
2018-09-15T04:29:39.023Z,88.85
2018-09-15T04:34:36.498Z,89.38
2018-09-15T04:39:43.008Z,88.75
2018-09-15T04:44:40.444Z,89.24
2018-09-15T04:49:37.864Z,89.11
2018-09-15T04:54:35.277Z,89.60
2018-09-15T04:59:32.690Z,89.42
2018-09-15T05:04:30.087Z,88.28
2018-09-15T05:09:38.182Z,88.14
2018-09-15T05:14:35.645Z,87.58
2018-09-15T05:19:33.108Z,85.78
2018-09-15T05:24:30.888Z,86.52
2018-09-15T05:29:28.367Z,86.90
2018-09-15T05:34:25.803Z,87.95
2018-09-15T05:39:29.866Z,88.27
2018-09-15T05:44:27.322Z,88.30
2018-09-15T05:49:24.745Z,88.75
2018-09-15T05:54:22.156Z,87.94
2018-09-15T05:59:19.544Z,87.32
2018-09-15T06:04:16.955Z,87.11
2018-09-15T06:09:15.894Z,86.89
2018-09-15T06:14:13.356Z,71.30
2018-09-15T06:19:10.747Z,63.44
2018-09-15T06:24:08.231Z,66.45
2018-09-15T06:29:06.827Z,71.68
2018-09-15T06:34:04.278Z,73.90
2018-09-15T06:39:03.358Z,71.75
2018-09-15T06:44:00.772Z,74.02
2018-09-15T06:48:58.191Z,74.72
2018-09-15T06:53:55.931Z,76.33
2018-09-15T06:58:53.393Z,77.47
2018-09-15T07:03:50.802Z,77.39
2018-09-15T07:08:48.226Z,76.69
2018-09-15T07:13:45.727Z,76.97
2018-09-15T07:18:43.172Z,75.23
2018-09-15T07:23:40.667Z,76.48
2018-09-15T07:28:38.087Z,77.20
2018-09-15T07:33:35.511Z,76.09
2018-09-15T07:38:32.943Z,75.01
2018-09-15T07:43:30.337Z,74.24
2018-09-15T07:48:27.768Z,75.30
2018-09-15T07:53:25.158Z,74.03
2018-09-15T07:58:22.540Z,73.05
2018-09-15T08:03:19.966Z,74.69
2018-09-15T08:08:17.375Z,74.25
2018-09-15T08:13:14.831Z,73.36
2018-09-15T08:18:12.276Z,73.87
2018-09-15T08:23:09.702Z,71.00
2018-09-15T08:28:07.080Z,71.92
2018-09-15T08:33:04.512Z,70.89
2018-09-15T08:38:01.955Z,69.10
2018-09-15T08:42:59.360Z,70.02
2018-09-15T08:47:57.621Z,70.29
2018-09-15T08:52:55.019Z,67.98
2018-09-15T08:57:52.428Z,68.36
2018-09-15T09:02:49.834Z,68.19
2018-09-15T09:07:47.256Z,68.31
2018-09-15T09:12:44.696Z,68.93
2018-09-15T09:17:42.086Z,68.39
2018-09-15T09:22:39.488Z,67.57
2018-09-15T09:27:37.016Z,67.94
2018-09-15T09:32:34.536Z,66.95
2018-09-15T09:37:31.935Z,67.09
2018-09-15T09:42:29.403Z,67.40
2018-09-15T09:47:26.835Z,65.27
2018-09-15T09:52:24.241Z,64.90
2018-09-15T09:57:21.641Z,66.25
2018-09-15T10:02:23.426Z,64.16
2018-09-15T10:07:20.854Z,64.16
2018-09-15T10:12:18.292Z,62.40
2018-09-15T10:17:15.687Z,63.00
2018-09-15T10:22:13.083Z,65.50
2018-09-15T10:27:10.521Z,65.17
2018-09-15T10:32:07.994Z,64.27
2018-09-15T10:37:05.407Z,65.25
2018-09-15T10:42:02.887Z,65.85
2018-09-15T10:47:00.411Z,66.62
2018-09-15T10:51:58.290Z,67.62
2018-09-15T10:56:55.678Z,67.44
2018-09-15T11:01:53.111Z,67.41
2018-09-15T11:06:50.514Z,67.04
2018-09-15T11:11:47.948Z,67.89
2018-09-15T11:16:45.354Z,67.95
2018-09-15T11:21:42.743Z,66.64
2018-09-15T11:26:40.148Z,66.36
2018-09-15T11:31:37.567Z,65.07
2018-09-15T11:36:34.993Z,62.84
2018-09-15T11:41:32.459Z,63.22
2018-09-15T11:46:30.179Z,60.88
2018-09-15T11:51:27.615Z,61.55
2018-09-15T11:56:25.018Z,61.18
2018-09-15T12:01:22.421Z,61.48
2018-09-15T12:06:19.865Z,60.50
2018-09-15T12:11:17.291Z,61.02
2018-09-15T12:16:14.744Z,60.04
2018-09-15T12:21:12.168Z,60.76
2018-09-15T12:26:09.580Z,59.66
2018-09-15T12:31:06.982Z,59.56
2018-09-15T12:36:04.419Z,60.20
2018-09-15T12:41:01.862Z,60.27
2018-09-15T12:45:59.283Z,59.89
2018-09-15T12:50:57.057Z,60.73
2018-09-15T12:55:54.475Z,58.30
2018-09-15T13:00:51.891Z,57.34
2018-09-15T13:05:49.283Z,56.34
2018-09-15T13:10:46.830Z,57.80
2018-09-15T13:15:44.235Z,57.29
2018-09-15T13:20:42.168Z,57.75
2018-09-15T13:25:39.600Z,55.22
2018-09-15T13:30:37.019Z,57.07
2018-09-15T13:35:34.434Z,56.39
2018-09-15T13:40:31.843Z,57.00
2018-09-15T13:45:29.236Z,58.55
2018-09-15T13:50:26.655Z,58.30
2018-09-15T13:55:24.071Z,58.79
2018-09-15T14:00:21.499Z,57.46
2018-09-15T14:05:18.938Z,57.26
2018-09-15T14:10:19.007Z,57.29
2018-09-15T14:15:15.012Z,56.02
2018-09-15T14:20:12.415Z,58.23
2018-09-15T14:25:09.815Z,57.86
2018-09-15T14:30:07.262Z,58.10
2018-09-15T14:35:04.753Z,59.70
2018-09-15T14:40:03.222Z,58.19
2018-09-15T14:45:00.624Z,55.97
2018-09-15T14:49:58.050Z,56.96
2018-09-15T14:54:55.460Z,57.53
2018-09-15T14:59:52.882Z,57.90
2018-09-15T15:04:50.299Z,56.63
2018-09-15T15:09:55.670Z,57.83
2018-09-15T15:14:53.076Z,57.92
2018-09-15T15:19:50.486Z,57.07
2018-09-15T15:24:47.907Z,56.41
2018-09-15T15:29:45.323Z,55.73
2018-09-15T15:34:42.766Z,58.23
2018-09-15T15:39:48.226Z,56.97
2018-09-15T15:44:46.084Z,54.60
2018-09-15T15:49:43.675Z,55.62
2018-09-15T15:54:41.127Z,55.79
2018-09-15T15:59:38.580Z,55.19
2018-09-15T16:04:35.986Z,55.19
2018-09-15T16:09:40.469Z,56.60
2018-09-15T16:14:38.027Z,56.26
2018-09-15T16:19:35.503Z,54.03
2018-09-15T16:24:36.909Z,55.23
2018-09-15T16:29:34.435Z,55.64
2018-09-15T16:34:31.935Z,55.78
2018-09-15T16:39:36.858Z,56.88
2018-09-15T16:44:34.351Z,57.34
2018-09-15T16:49:31.811Z,57.79
2018-09-15T16:54:30.370Z,58.70
2018-09-15T16:59:27.763Z,59.75
2018-09-15T17:04:25.174Z,59.73
2018-09-15T17:14:33.849Z,60.56
2018-09-15T17:19:31.247Z,61.27
2018-09-15T17:24:29.684Z,60.80
2018-09-15T17:29:27.308Z,61.65
2018-09-15T17:34:25.810Z,61.30
2018-09-15T17:39:30.056Z,61.69
2018-09-15T17:44:28.636Z,62.78
2018-09-15T17:49:26.054Z,65.11
2018-09-15T17:54:24.944Z,66.36
2018-09-15T17:59:22.403Z,66.96
2018-09-15T18:04:20.099Z,67.38
2018-09-15T18:09:25.270Z,68.36
2018-09-15T18:14:23.771Z,68.97
2018-09-15T18:19:21.171Z,70.28
2018-09-15T18:24:18.562Z,71.69
2018-09-15T18:29:15.946Z,72.13
2018-09-15T18:34:13.331Z,73.32
2018-09-15T18:39:13.584Z,73.83
2018-09-15T18:44:11.090Z,74.42
2018-09-15T18:49:08.483Z,75.67
2018-09-15T18:54:08.564Z,75.71
2018-09-15T18:59:06.263Z,75.70
2018-09-15T19:04:03.671Z,76.43
2018-09-15T19:09:01.060Z,77.31
2018-09-15T19:13:58.487Z,77.19
2018-09-15T19:18:55.871Z,78.60
2018-09-15T19:23:53.244Z,79.97
2018-09-15T19:28:50.615Z,79.86
2018-09-15T19:33:48.296Z,79.88
2018-09-15T19:38:47.474Z,80.97
2018-09-15T19:43:45.068Z,80.61
2018-09-15T19:48:42.450Z,81.78
2018-09-15T19:53:39.831Z,81.29
2018-09-15T19:58:37.221Z,81.39
2018-09-15T20:03:34.611Z,81.50
2018-09-15T20:08:31.994Z,80.48
2018-09-15T20:13:29.415Z,81.52
2018-09-15T20:18:25.711Z,82.10
2018-09-15T20:23:23.086Z,82.14
2018-09-15T20:28:20.471Z,81.13
2018-09-15T20:33:17.890Z,81.42
2018-09-15T20:38:15.274Z,80.85
2018-09-15T20:43:12.718Z,79.99
2018-09-15T20:48:10.095Z,80.54
2018-09-15T20:53:07.507Z,80.57
2018-09-15T20:58:04.980Z,82.07
2018-09-15T21:03:02.365Z,82.45
2018-09-15T21:07:59.790Z,83.12
2018-09-15T21:12:57.246Z,83.95
2018-09-15T21:17:54.625Z,84.31
2018-09-15T21:22:52.010Z,84.84
2018-09-15T21:27:49.412Z,84.55
2018-09-15T21:32:46.795Z,84.96
2018-09-15T21:37:44.512Z,84.89
2018-09-15T21:42:41.937Z,85.48
2018-09-15T21:47:39.343Z,85.38
2018-09-15T21:52:36.748Z,85.31
2018-09-15T21:57:35.316Z,84.70
2018-09-15T22:02:32.702Z,85.66
2018-09-15T22:07:30.083Z,86.25
2018-09-15T22:12:27.550Z,87.05
2018-09-15T22:17:24.980Z,86.08
2018-09-15T22:22:22.506Z,86.47
2018-09-15T22:27:19.802Z,85.91
2018-09-15T22:32:17.215Z,86.64
2018-09-15T22:37:14.598Z,86.50
2018-09-15T22:42:12.030Z,86.35
2018-09-15T22:47:09.404Z,86.30
2018-09-15T22:52:06.812Z,85.66
2018-09-15T22:57:04.406Z,85.43
2018-09-15T23:02:01.823Z,85.86
2018-09-15T23:06:59.567Z,84.60
2018-09-15T23:11:57.411Z,86.81
2018-09-15T23:16:54.792Z,86.80
2018-09-15T23:21:52.186Z,86.97
2018-09-15T23:26:49.630Z,87.32
2018-09-15T23:31:47.021Z,87.26
2018-09-15T23:36:44.407Z,86.94
2018-09-15T23:41:41.794Z,86.07
2018-09-15T23:46:39.171Z,86.99
2018-09-15T23:51:36.582Z,86.81
2018-09-15T23:56:33.963Z,86.68
